Time;durP1;ratioP1;P1;durP2;ratioP2;P2;SDS_P1;SDS_P2;PMS_P1;PMS_P2;Temp;Humidity;BMP_temperature;BMP_pressure;BME280_temperature;BME280_humidity;BME280_pressure;Samples;Min_cycle;Max_cycle;Signal;HPM_P1;HPM_P2
2024/02/01 00:00:29;;;;;;;2.30;1.20;;;;;17.90;101331.00;;;;2060861;28;20253;-58
2024/02/01 00:01:29;;;;;;;2.20;1.20;;;;;17.90;101336.00;;;;2060724;28;20218;-59
2024/02/01 00:02:29;;;;;;;2.77;1.40;;;;;17.90;101321.00;;;;2052373;28;20218;-58
2024/02/01 00:03:30;;;;;;;2.10;1.10;;;;;17.90;101331.00;;;;2051692;28;20266;-58
2024/02/01 00:04:30;;;;;;;2.20;1.20;;;;;17.90;101319.00;;;;2051281;28;20228;-59
2024/02/01 00:05:30;;;;;;;2.33;1.20;;;;;17.90;101331.00;;;;2059405;28;20249;-59
2024/02/01 00:06:31;;;;;;;2.53;1.33;;;;;17.90;101327.00;;;;2061098;28;20225;-58
2024/02/01 00:07:31;;;;;;;2.70;1.20;;;;;17.90;101323.00;;;;2060486;28;20235;-58
2024/02/01 00:08:31;;;;;;;2.33;1.13;;;;;17.90;101325.00;;;;2061269;28;20217;-58
2024/02/01 00:09:32;;;;;;;2.20;1.30;;;;;17.90;101322.00;;;;2050835;28;20220;-59
2024/02/01 00:10:32;;;;;;;2.07;1.10;;;;;17.90;101322.00;;;;2059870;28;20308;-59
2024/02/01 00:11:32;;;;;;;2.43;1.40;;;;;17.90;101318.00;;;;2061305;28;20226;-58
2024/02/01 00:12:33;;;;;;;2.40;1.23;;;;;17.90;101315.00;;;;2060306;28;20233;-58
2024/02/01 00:13:33;;;;;;;1.90;1.00;;;;;17.90;101320.00;;;;2060932;28;20249;-59
2024/02/01 00:14:33;;;;;;;2.27;1.30;;;;;17.90;101320.00;;;;2050754;28;20222;-58
2024/02/01 00:15:34;;;;;;;1.93;1.00;;;;;17.90;101326.00;;;;2050634;28;20233;-58
2024/02/01 00:16:34;;;;;;;2.10;1.00;;;;;17.90;101325.00;;;;2052504;28;20234;-59
2024/02/01 00:17:34;;;;;;;2.30;1.40;;;;;17.90;101310.00;;;;2059930;28;20234;-58
2024/02/01 00:18:35;;;;;;;2.10;0.83;;;;;17.90;101308.00;;;;2061287;28;20233;-59
2024/02/01 00:19:35;;;;;;;2.03;1.03;;;;;17.90;101313.00;;;;2050690;28;20222;-58
2024/02/01 00:20:35;;;;;;;2.17;1.10;;;;;17.90;101310.00;;;;2061183;28;20234;-58
2024/02/01 00:21:36;;;;;;;2.40;1.27;;;;;17.90;101309.00;;;;2061246;28;20226;-58
2024/02/01 00:22:36;;;;;;;2.53;1.13;;;;;17.90;101310.00;;;;2059811;28;20559;-63
2024/02/01 00:23:36;;;;;;;2.30;1.20;;;;;17.90;101307.00;;;;2061152;28;20231;-60
2024/02/01 00:24:37;;;;;;;1.70;0.87;;;;;17.90;101197.00;;;;2050596;28;20251;-59
2024/02/01 00:25:37;;;;;;;2.60;1.30;;;;;17.90;101310.00;;;;2050936;28;20585;-58
2024/02/01 00:26:37;;;;;;;1.87;1.23;;;;;17.90;101306.00;;;;2051545;28;20791;-58
2024/02/01 00:27:38;;;;;;;3.10;1.20;;;;;17.90;101302.00;;;;2060796;28;20221;-58
2024/02/01 00:28:38;;;;;;;2.10;1.00;;;;;17.90;101306.00;;;;2061001;28;20233;-58
2024/02/01 00:29:38;;;;;;;2.33;1.10;;;;;17.90;101306.00;;;;2049898;28;20222;-59
2024/02/01 00:30:41;;;;;;;3.13;1.20;;;;;17.90;101294.00;;;;2060963;28;20686;-59
2024/02/01 00:31:41;;;;;;;2.10;1.05;;;;;18.00;101313.00;;;;2060266;28;20231;-59
2024/02/01 00:32:41;;;;;;;2.80;1.60;;;;;17.90;101305.00;;;;2060809;28;20221;-59
2024/02/01 00:33:41;;;;;;;4.20;1.63;;;;;17.90;101306.00;;;;2060463;28;20326;-59
2024/02/01 00:34:42;;;;;;;2.17;1.20;;;;;17.90;101309.00;;;;2051070;28;20245;-60
2024/02/01 00:35:42;;;;;;;2.63;1.00;;;;;17.90;101306.00;;;;2050946;28;20262;-58
2024/02/01 00:36:42;;;;;;;2.77;1.43;;;;;17.90;101311.00;;;;2051854;28;20233;-59
2024/02/01 00:37:43;;;;;;;2.00;1.20;;;;;17.90;101301.00;;;;2061045;28;20215;-58
2024/02/01 00:38:44;;;;;;;2.57;1.43;;;;;17.90;101306.00;;;;2060403;28;20320;-58
2024/02/01 00:39:44;;;;;;;2.57;1.37;;;;;17.90;101309.00;;;;2041369;28;21202;-58
2024/02/01 00:40:44;;;;;;;2.77;1.23;;;;;17.90;101307.00;;;;2051804;28;20225;-59
2024/02/01 00:41:45;;;;;;;2.47;1.17;;;;;17.90;101306.00;;;;2060678;28;20215;-58
2024/02/01 00:42:45;;;;;;;1.80;1.00;;;;;17.90;101305.00;;;;2060733;28;20256;-58
2024/02/01 00:43:46;;;;;;;1.80;1.00;;;;;17.90;101306.00;;;;2060364;28;20213;-59
2024/02/01 00:44:46;;;;;;;2.00;1.03;;;;;17.90;101302.00;;;;2050247;28;20222;-59
2024/02/01 00:45:46;;;;;;;1.90;1.10;;;;;17.90;101298.00;;;;2064744;28;20303;-59
2024/02/01 00:46:47;;;;;;;2.40;1.20;;;;;17.90;101301.00;;;;2061349;28;20218;-59
2024/02/01 00:47:48;;;;;;;2.70;1.30;;;;;17.90;101292.00;;;;2055549;28;20221;-58
2024/02/01 00:48:48;;;;;;;3.85;1.30;;;;;17.90;101293.00;;;;2051341;28;20262;-59
2024/02/01 00:49:48;;;;;;;1.77;1.00;;;;;17.90;101292.00;;;;2061129;28;20287;-58
2024/02/01 00:50:49;;;;;;;2.57;1.10;;;;;17.90;101303.00;;;;2051859;28;20222;-58
2024/02/01 00:51:49;;;;;;;2.67;1.27;;;;;17.90;101294.00;;;;2053888;28;20614;-58
2024/02/01 00:52:49;;;;;;;2.10;1.20;;;;;17.90;101287.00;;;;2061721;28;20752;-58
2024/02/01 00:53:50;;;;;;;2.97;1.27;;;;;17.90;101298.00;;;;2050947;28;20221;-59
2024/02/01 00:54:50;;;;;;;5.20;1.20;;;;;17.90;101297.00;;;;2060860;28;20213;-59
2024/02/01 00:55:50;;;;;;;1.83;0.80;;;;;17.90;101292.00;;;;2062591;28;20287;-59
2024/02/01 00:56:51;;;;;;;2.53;1.30;;;;;17.90;101297.00;;;;2062902;28;20213;-58
2024/02/01 00:57:51;;;;;;;2.53;1.20;;;;;17.90;101294.00;;;;2052820;28;20219;-59
2024/02/01 00:58:51;;;;;;;2.33;1.13;;;;;17.90;101295.00;;;;2043853;28;20336;-58
2024/02/01 00:59:52;;;;;;;2.93;1.50;;;;;17.90;101297.00;;;;2058905;28;20220;-58
2024/02/01 01:00:52;;;;;;;3.27;1.50;;;;;17.90;101275.00;;;;2062505;28;20297;-58
2024/02/01 01:01:52;;;;;;;2.23;1.10;;;;;17.90;101292.00;;;;2061882;28;20214;-58
2024/02/01 01:02:53;;;;;;;2.63;1.17;;;;;17.90;101288.00;;;;2062448;28;20210;-58
2024/02/01 01:03:55;;;;;;;2.70;1.20;;;;;17.90;101287.00;;;;2052930;28;20218;-58
2024/02/01 01:04:55;;;;;;;2.70;1.30;;;;;17.90;101297.00;;;;2051888;28;20217;-58
2024/02/01 01:05:55;;;;;;;6.13;1.73;;;;;17.90;101294.00;;;;2053780;28;20233;-58
2024/02/01 01:06:56;;;;;;;1.87;1.10;;;;;17.90;101292.00;;;;2060639;28;21935;-59
2024/02/01 01:07:57;;;;;;;2.13;1.00;;;;;17.90;101288.00;;;;2062563;28;20693;-58
2024/02/01 01:08:58;;;;;;;2.85;1.10;;;;;17.90;101283.00;;;;2051958;28;20256;-59
2024/02/01 01:09:59;;;;;;;1.95;1.00;;;;;17.90;101290.00;;;;2062721;28;20292;-58
2024/02/01 01:10:59;;;;;;;2.40;1.17;;;;;17.90;101284.00;;;;2062307;28;20226;-59
2024/02/01 01:11:59;;;;;;;2.73;1.17;;;;;17.90;101289.00;;;;2061452;28;20220;-59
2024/02/01 01:13:00;;;;;;;2.77;1.30;;;;;17.90;101290.00;;;;2062394;28;20618;-59
2024/02/01 01:14:00;;;;;;;2.10;1.20;;;;;17.90;101255.00;;;;2051655;28;20302;-59
2024/02/01 01:15:00;;;;;;;2.23;1.03;;;;;17.90;101288.00;;;;2052688;28;20241;-58
2024/02/01 01:16:01;;;;;;;2.73;1.43;;;;;17.90;101319.00;;;;2053249;28;20716;-59
2024/02/01 01:17:01;;;;;;;2.27;1.37;;;;;17.90;101280.00;;;;2053896;28;20640;-58
2024/02/01 01:18:01;;;;;;;2.53;1.30;;;;;17.90;101286.00;;;;2053862;28;20639;-58
2024/02/01 01:19:01;;;;;;;1.93;0.90;;;;;17.90;101295.00;;;;2047718;28;20591;-58
2024/02/01 01:20:04;;;;;;;3.20;1.40;;;;;17.90;101288.00;;;;2062547;28;20240;-57
2024/02/01 01:21:05;;;;;;;1.80;1.00;;;;;17.90;101291.00;;;;2061700;28;20226;-59
2024/02/01 01:22:05;;;;;;;2.17;1.10;;;;;17.90;101287.00;;;;2062416;28;20597;-58
2024/02/01 01:23:05;;;;;;;3.23;1.30;;;;;17.90;101291.00;;;;2061650;28;20587;-58
2024/02/01 01:24:06;;;;;;;2.40;1.30;;;;;17.90;101286.00;;;;2052470;28;22689;-58
2024/02/01 01:25:06;;;;;;;3.30;1.10;;;;;17.90;101288.00;;;;2060985;28;20646;-58
2024/02/01 01:26:07;;;;;;;3.37;1.50;;;;;17.90;101293.00;;;;2061880;28;20245;-57
2024/02/01 01:27:07;;;;;;;3.10;1.30;;;;;17.90;101293.00;;;;2053267;28;20222;-61
2024/02/01 01:28:08;;;;;;;2.03;1.20;;;;;17.90;101288.00;;;;2054424;28;20289;-58
2024/02/01 01:29:08;;;;;;;2.13;1.07;;;;;17.90;101289.00;;;;2052352;28;20266;-58
2024/02/01 01:30:09;;;;;;;2.57;1.23;;;;;17.60;101285.00;;;;2062689;28;20457;-59
2024/02/01 01:31:09;;;;;;;1.87;0.90;;;;;17.90;101299.00;;;;2059162;28;20228;-58
2024/02/01 01:32:10;;;;;;;1.80;0.90;;;;;17.90;101291.00;;;;2053557;28;20463;-58
2024/02/01 01:33:10;;;;;;;2.40;1.30;;;;;17.90;101294.00;;;;2061201;28;20248;-58
2024/02/01 01:34:11;;;;;;;2.73;1.03;;;;;17.90;101283.00;;;;2052267;28;20248;-59
2024/02/01 01:35:11;;;;;;;2.80;1.10;;;;;17.90;101291.00;;;;2059658;28;22206;-59
2024/02/01 01:36:11;;;;;;;2.60;1.40;;;;;17.90;101296.00;;;;2062204;28;20256;-58
2024/02/01 01:37:12;;;;;;;2.40;1.40;;;;;17.90;101292.00;;;;2061319;28;20214;-58
2024/02/01 01:38:12;;;;;;;3.03;1.20;;;;;17.90;101287.00;;;;2062132;28;20577;-59
2024/02/01 01:39:12;;;;;;;2.10;1.10;;;;;17.90;101286.00;;;;2052066;28;20234;-58
2024/02/01 01:40:13;;;;;;;1.90;1.00;;;;;17.80;101285.00;;;;2060807;28;20241;-59
2024/02/01 01:41:13;;;;;;;1.93;0.77;;;;;17.90;101303.00;;;;2061623;28;20210;-58
2024/02/01 01:42:14;;;;;;;2.30;1.27;;;;;17.90;101299.00;;;;2061464;28;20259;-58
2024/02/01 01:43:14;;;;;;;2.17;1.20;;;;;17.90;101301.00;;;;2061737;28;20716;-59
2024/02/01 01:44:15;;;;;;;1.83;0.87;;;;;17.90;101298.00;;;;2051689;28;20226;-58
2024/02/01 01:45:15;;;;;;;2.03;1.10;;;;;17.90;101304.00;;;;2060555;28;20326;-58
2024/02/01 01:46:15;;;;;;;2.40;1.33;;;;;17.80;101295.00;;;;2062146;28;20210;-59
2024/02/01 01:47:16;;;;;;;2.90;1.23;;;;;17.90;101284.00;;;;2052860;28;20261;-58
2024/02/01 01:48:16;;;;;;;2.40;1.27;;;;;17.90;101284.00;;;;2053365;28;20210;-58
2024/02/01 01:49:17;;;;;;;3.80;1.47;;;;;17.90;101286.00;;;;2043003;28;20259;-58
2024/02/01 01:50:17;;;;;;;2.10;1.20;;;;;17.90;101299.00;;;;2045706;28;20399;-58
2024/02/01 01:51:17;;;;;;;2.50;1.30;;;;;17.90;101295.00;;;;2038328;28;20248;-58
2024/02/01 01:52:17;;;;;;;3.03;1.20;;;;;17.90;101298.00;;;;2048107;28;20219;-58
2024/02/01 01:53:18;;;;;;;2.50;1.50;;;;;17.90;101301.00;;;;2044796;29;20245;-58
2024/02/01 01:54:19;;;;;;;3.13;1.33;;;;;17.90;101295.00;;;;2043144;28;20340;-59
2024/02/01 01:55:20;;;;;;;2.80;1.20;;;;;17.90;101292.00;;;;2060809;28;20225;-58
2024/02/01 01:56:20;;;;;;;2.83;0.90;;;;;17.90;101290.00;;;;2044745;28;20243;-58
2024/02/01 01:57:20;;;;;;;1.90;0.90;;;;;17.90;101281.00;;;;2037530;29;20223;-58
2024/02/01 01:58:21;;;;;;;2.23;1.27;;;;;17.90;101291.00;;;;2052405;28;20217;-58
2024/02/01 01:59:21;;;;;;;2.47;1.53;;;;;17.90;101252.00;;;;2036287;28;20227;-58
2024/02/01 02:00:23;;;;;;;3.17;1.73;;;;;17.90;101280.00;;;;2043652;29;20264;-58
2024/02/01 02:01:23;;;;;;;3.08;1.30;;;;;17.90;101278.00;;;;2050330;28;20251;-58
2024/02/01 02:02:25;;;;;;;2.37;1.30;;;;;17.90;101159.00;;;;2041628;28;20813;-58
2024/02/01 02:03:28;;;;;;;3.58;1.33;;;;;17.90;101283.00;;;;2050888;28;20697;-58
2024/02/01 02:04:29;;;;;;;1.90;0.88;;;;;17.90;101285.00;;;;2043744;28;20216;-58
2024/02/01 02:05:29;;;;;;;2.53;1.30;;;;;17.90;101276.00;;;;2041457;28;20223;-57
2024/02/01 02:06:30;;;;;;;2.70;1.40;;;;;17.90;101265.00;;;;2053329;28;20239;-57
2024/02/01 02:07:30;;;;;;;2.10;1.07;;;;;17.90;101285.00;;;;2061888;28;20230;-58
2024/02/01 02:08:30;;;;;;;2.63;1.13;;;;;17.80;101276.00;;;;2059403;28;20647;-58
2024/02/01 02:09:31;;;;;;;2.10;1.13;;;;;17.80;101276.00;;;;2051542;28;20710;-58
2024/02/01 02:10:31;;;;;;;2.03;1.20;;;;;17.90;101280.00;;;;2060582;28;20720;-58
2024/02/01 02:11:32;;;;;;;2.37;1.40;;;;;17.90;101280.00;;;;2061979;28;20222;-58
2024/02/01 02:12:32;;;;;;;2.30;1.40;;;;;17.90;101278.00;;;;2061231;28;20710;-58
2024/02/01 02:13:32;;;;;;;1.90;1.00;;;;;17.80;101293.00;;;;2044878;28;21230;-58
2024/02/01 02:14:33;;;;;;;2.20;1.00;;;;;17.90;101290.00;;;;2034770;29;20219;-59
2024/02/01 02:15:33;;;;;;;3.03;1.90;;;;;17.90;101273.00;;;;2050962;28;20231;-57
2024/02/01 02:16:36;;;;;;;4.27;1.10;;;;;17.90;101275.00;;;;2053354;28;20519;-59
2024/02/01 02:17:37;;;;;;;2.22;1.05;;;;;17.90;101282.00;;;;2059947;28;20220;-58
2024/02/01 02:18:38;;;;;;;3.75;1.30;;;;;17.90;101285.00;;;;2061957;28;21015;-58
2024/02/01 02:19:38;;;;;;;2.20;1.27;;;;;17.90;101277.00;;;;2051580;28;20304;-58
2024/02/01 02:20:42;;;;;;;2.30;1.17;;;;;17.90;101267.00;;;;2061747;28;20229;-58
2024/02/01 02:21:44;;;;;;;2.30;1.40;;;;;17.90;101276.00;;;;2027117;29;20238;-58
2024/02/01 02:22:45;;;;;;;2.53;1.17;;;;;17.90;101281.00;;;;2038076;28;20230;-58
2024/02/01 02:23:49;;;;;;;1.92;1.20;;;;;17.80;101271.00;;;;2045212;28;20226;-58
2024/02/01 02:24:49;;;;;;;2.45;1.30;;;;;17.80;101275.00;;;;2051384;28;20297;-58
2024/02/01 02:25:50;;;;;;;3.07;1.17;;;;;17.80;101284.00;;;;2059750;28;20218;-58
2024/02/01 02:26:50;;;;;;;2.93;1.40;;;;;17.90;101282.00;;;;2060799;28;20276;-58
2024/02/01 02:27:51;;;;;;;2.80;1.10;;;;;17.80;101283.00;;;;2053071;28;20225;-58
2024/02/01 02:28:51;;;;;;;2.17;1.20;;;;;17.80;101281.00;;;;2042029;28;20223;-58
2024/02/01 02:29:52;;;;;;;1.93;1.30;;;;;17.90;101298.00;;;;2061874;28;20301;-59
2024/02/01 02:30:52;;;;;;;2.43;1.47;;;;;17.90;101287.00;;;;2061697;28;20214;-58
2024/02/01 02:31:53;;;;;;;2.20;1.30;;;;;17.80;101285.00;;;;2060978;28;20244;-58
2024/02/01 02:32:53;;;;;;;4.67;1.40;;;;;17.80;101278.00;;;;2061853;28;20218;-58
2024/02/01 02:33:54;;;;;;;2.93;1.33;;;;;17.80;101286.00;;;;2042210;28;20226;-59
2024/02/01 02:34:54;;;;;;;2.80;1.30;;;;;17.80;101277.00;;;;2051895;28;20258;-59
2024/02/01 02:35:54;;;;;;;2.50;1.23;;;;;17.80;101279.00;;;;2052102;28;20316;-58
2024/02/01 02:36:54;;;;;;;2.70;1.00;;;;;17.90;101288.00;;;;2052917;28;20236;-58
2024/02/01 02:37:55;;;;;;;3.10;1.50;;;;;17.90;101284.00;;;;2059637;28;20218;-58
2024/02/01 02:38:55;;;;;;;2.20;1.20;;;;;17.90;101287.00;;;;2051110;28;20218;-58
2024/02/01 02:39:56;;;;;;;1.70;0.90;;;;;17.90;101279.00;;;;2061876;28;20304;-58
2024/02/01 02:40:56;;;;;;;2.30;1.20;;;;;17.90;101287.00;;;;2060987;28;20221;-59
2024/02/01 02:41:56;;;;;;;2.70;1.30;;;;;17.80;101280.00;;;;2060362;28;20218;-58
2024/02/01 02:42:56;;;;;;;2.70;1.57;;;;;17.80;101286.00;;;;2061068;28;20213;-58
2024/02/01 02:43:57;;;;;;;2.90;1.50;;;;;17.80;101281.00;;;;2051206;28;20252;-58
2024/02/01 02:44:57;;;;;;;1.80;1.07;;;;;17.80;101278.00;;;;2051834;28;20214;-58
2024/02/01 02:45:58;;;;;;;2.60;1.23;;;;;17.80;101264.00;;;;2057459;28;20221;-58
2024/02/01 02:46:58;;;;;;;2.63;0.97;;;;;17.80;101280.00;;;;2051958;28;20229;-58
2024/02/01 02:47:58;;;;;;;2.10;1.00;;;;;17.80;101273.00;;;;2052666;28;20235;-58
2024/02/01 02:48:58;;;;;;;3.90;1.10;;;;;17.80;101276.00;;;;2042503;28;20213;-58
2024/02/01 02:49:59;;;;;;;3.50;1.40;;;;;17.80;101270.00;;;;2052419;28;20218;-58
2024/02/01 02:50:59;;;;;;;2.33;1.10;;;;;17.80;101275.00;;;;2061578;28;20224;-58
2024/02/01 02:51:59;;;;;;;2.17;1.10;;;;;17.80;101320.00;;;;2057955;28;20214;-58
2024/02/01 02:53:00;;;;;;;2.37;1.40;;;;;17.80;101279.00;;;;2061075;28;20710;-58
2024/02/01 02:54:00;;;;;;;2.10;1.00;;;;;17.80;101273.00;;;;2051423;28;20708;-58
2024/02/01 02:55:00;;;;;;;2.70;0.80;;;;;17.80;101281.00;;;;2059714;28;20690;-58
2024/02/01 02:56:01;;;;;;;2.20;1.30;;;;;17.80;101278.00;;;;2061405;28;20260;-58
2024/02/01 02:57:01;;;;;;;2.07;1.00;;;;;17.80;101280.00;;;;2061097;28;20860;-59
2024/02/01 02:58:01;;;;;;;1.90;1.03;;;;;17.80;101287.00;;;;2061799;28;20636;-58
2024/02/01 02:59:02;;;;;;;2.53;1.10;;;;;17.80;101290.00;;;;2051527;28;20237;-58
2024/02/01 03:00:03;;;;;;;2.40;1.03;;;;;17.80;101283.00;;;;2061091;28;20228;-58
2024/02/01 03:01:07;;;;;;;2.90;1.25;;;;;17.80;101286.00;;;;2051299;28;20215;-58
2024/02/01 03:02:08;;;;;;;2.50;1.25;;;;;17.80;101282.00;;;;2044608;28;20581;-58
2024/02/01 03:03:08;;;;;;;2.13;1.10;;;;;17.80;101294.00;;;;2051806;28;20225;-57
2024/02/01 03:04:08;;;;;;;2.97;1.43;;;;;17.80;101302.00;;;;2050718;28;20236;-58
2024/02/01 03:05:09;;;;;;;2.90;1.17;;;;;17.80;101292.00;;;;2059641;28;20682;-57
2024/02/01 03:06:09;;;;;;;2.20;1.10;;;;;17.90;101289.00;;;;2061086;28;20733;-58
2024/02/01 03:07:10;;;;;;;1.90;0.90;;;;;17.80;101290.00;;;;2060771;28;20579;-58
2024/02/01 03:08:11;;;;;;;2.00;1.30;;;;;17.80;101281.00;;;;2061463;28;20218;-58
2024/02/01 03:09:16;;;;;;;3.88;1.55;;;;;17.80;101280.00;;;;2051494;28;20234;-58
2024/02/01 03:10:18;;;;;;;2.20;1.10;;;;;17.80;101286.00;;;;2052595;28;20222;-59
2024/02/01 03:11:18;;;;;;;2.55;1.25;;;;;17.80;101285.00;;;;2044391;28;20903;-58
2024/02/01 03:12:19;;;;;;;2.60;1.10;;;;;17.80;101279.00;;;;2050606;28;20218;-58
2024/02/01 03:13:20;;;;;;;2.27;1.10;;;;;17.80;101288.00;;;;2060544;28;20289;-58
2024/02/01 03:14:20;;;;;;;2.30;1.10;;;;;17.80;101295.00;;;;2049478;28;20476;-58
2024/02/01 03:15:20;;;;;;;3.17;1.20;;;;;17.80;101280.00;;;;2060289;28;20332;-58
2024/02/01 03:16:21;;;;;;;2.80;1.23;;;;;17.80;101284.00;;;;2060668;28;20339;-58
2024/02/01 03:17:22;;;;;;;2.70;1.30;;;;;17.80;101280.00;;;;2052944;28;20221;-58
2024/02/01 03:18:22;;;;;;;2.87;1.30;;;;;17.80;101275.00;;;;2052142;28;20470;-58
2024/02/01 03:19:22;;;;;;;2.73;1.43;;;;;17.80;101287.00;;;;2040398;28;20250;-58
2024/02/01 03:20:23;;;;;;;1.90;0.90;;;;;17.80;101284.00;;;;2052532;28;20894;-58
2024/02/01 03:21:25;;;;;;;1.97;1.10;;;;;17.80;101277.00;;;;2051762;28;21124;-58
2024/02/01 03:22:25;;;;;;;2.47;1.17;;;;;17.80;101290.00;;;;2039981;29;20212;-58
2024/02/01 03:23:27;;;;;;;2.23;1.27;;;;;17.80;101300.00;;;;2041638;28;20223;-59
2024/02/01 03:24:29;;;;;;;2.25;1.20;;;;;17.80;101298.00;;;;2051362;28;20256;-58
2024/02/01 03:25:31;;;;;;;2.80;1.17;;;;;17.80;101284.00;;;;2059406;28;20614;-58
2024/02/01 03:26:34;;;;;;;2.22;1.23;;;;;17.80;101287.00;;;;2061476;28;20268;-58
2024/02/01 03:27:34;;;;;;;2.50;1.38;;;;;17.80;101284.00;;;;2052306;28;20235;-58
2024/02/01 03:28:35;;;;;;;2.60;1.50;;;;;17.80;101285.00;;;;2049170;28;20266;-58
2024/02/01 03:29:35;;;;;;;2.13;1.17;;;;;17.80;101281.00;;;;2051456;28;20220;-58
2024/02/01 03:30:38;;;;;;;2.97;1.40;;;;;17.80;101283.00;;;;2061001;28;20723;-58
2024/02/01 03:31:39;;;;;;;2.53;1.35;;;;;17.80;101291.00;;;;2058874;28;20852;-58
2024/02/01 03:32:40;;;;;;;2.17;1.27;;;;;17.80;101287.00;;;;2058122;28;20234;-58
2024/02/01 03:33:44;;;;;;;2.10;1.20;;;;;17.80;101291.00;;;;2061399;28;20538;-58
2024/02/01 03:34:44;;;;;;;2.22;1.20;;;;;17.80;101304.00;;;;2042140;28;20722;-59
2024/02/01 03:35:45;;;;;;;2.73;1.27;;;;;17.80;101299.00;;;;2050940;28;22123;-62
2024/02/01 03:36:45;;;;;;;2.37;1.30;;;;;17.80;101298.00;;;;2060976;28;20269;-61
2024/02/01 03:37:45;;;;;;;1.93;0.90;;;;;17.80;101293.00;;;;2063255;28;20873;-59
2024/02/01 03:38:47;;;;;;;2.80;1.10;;;;;17.80;101291.00;;;;2061074;28;20293;-59
2024/02/01 03:39:47;;;;;;;2.67;1.10;;;;;17.80;101297.00;;;;2052749;28;20763;-58
2024/02/01 03:40:47;;;;;;;2.00;1.00;;;;;17.80;101304.00;;;;2061100;28;20219;-58
2024/02/01 03:41:54;;;;;;;2.30;1.07;;;;;17.80;101299.00;;;;2055765;28;20243;-58
2024/02/01 03:42:55;;;;;;;2.40;1.20;;;;;17.80;101303.00;;;;2061416;28;20737;-58
2024/02/01 03:43:55;;;;;;;2.83;1.33;;;;;17.80;101298.00;;;;2049992;28;20232;-58
2024/02/01 03:44:55;;;;;;;2.30;1.27;;;;;17.80;101304.00;;;;2059788;28;20671;-58
2024/02/01 03:45:56;;;;;;;2.93;1.30;;;;;17.80;101304.00;;;;2059573;28;20226;-58
2024/02/01 03:46:57;;;;;;;2.53;1.30;;;;;17.80;101299.00;;;;2045332;28;20224;-58
2024/02/01 03:47:57;;;;;;;2.33;1.50;;;;;17.80;101299.00;;;;2050103;28;20581;-59
2024/02/01 03:48:58;;;;;;;1.90;1.00;;;;;17.80;101305.00;;;;2042063;28;20270;-59
2024/02/01 03:49:59;;;;;;;2.10;1.00;;;;;17.80;101301.00;;;;2044756;28;20278;-58
2024/02/01 03:51:00;;;;;;;2.40;1.20;;;;;17.80;101304.00;;;;2052144;28;20602;-58
2024/02/01 03:52:00;;;;;;;2.60;1.30;;;;;17.80;101296.00;;;;2059147;28;20228;-59
2024/02/01 03:53:01;;;;;;;1.80;1.00;;;;;17.80;101292.00;;;;2058656;28;20211;-59
2024/02/01 03:54:06;;;;;;;2.40;1.23;;;;;17.70;101310.00;;;;2043429;28;20635;-58
2024/02/01 03:55:16;;;;;;;2.17;1.10;;;;;17.80;101301.00;;;;2059472;28;20312;-58
2024/02/01 03:56:23;;;;;;;2.53;1.25;;;;;17.80;101307.00;;;;2060701;28;20230;-58
2024/02/01 03:57:24;;;;;;;2.03;1.25;;;;;17.80;101304.00;;;;2058963;28;20254;-58
2024/02/01 03:58:26;;;;;;;2.17;1.20;;;;;17.80;101304.00;;;;2058423;28;20346;-58
2024/02/01 03:59:26;;;;;;;2.53;1.30;;;;;17.80;101309.00;;;;2051481;28;20222;-58
2024/02/01 04:00:30;;;;;;;2.43;1.40;;;;;17.80;101316.00;;;;2059305;28;20565;-58
2024/02/01 04:01:30;;;;;;;2.55;1.45;;;;;17.80;101308.00;;;;2056464;28;20206;-58
2024/02/01 04:02:30;;;;;;;2.87;1.10;;;;;17.80;101309.00;;;;2051821;28;20478;-58
2024/02/01 04:03:31;;;;;;;3.50;1.50;;;;;17.80;101311.00;;;;2050790;28;20353;-58
2024/02/01 04:04:31;;;;;;;2.60;1.50;;;;;17.80;101340.00;;;;2051154;28;20268;-59
2024/02/01 04:05:38;;;;;;;3.83;1.40;;;;;17.80;101317.00;;;;2050831;28;20967;-58
2024/02/01 04:06:38;;;;;;;2.38;1.33;;;;;17.80;101312.00;;;;2053391;28;20233;-58
2024/02/01 04:07:39;;;;;;;2.40;1.30;;;;;17.80;101313.00;;;;2058374;28;20304;-58
2024/02/01 04:08:40;;;;;;;2.55;1.45;;;;;17.80;101313.00;;;;2060917;28;20474;-58
2024/02/01 04:09:40;;;;;;;2.10;1.20;;;;;17.80;101317.00;;;;2050406;28;20221;-58
2024/02/01 04:10:40;;;;;;;2.53;1.33;;;;;17.80;101310.00;;;;2060761;28;20219;-58
2024/02/01 04:11:41;;;;;;;2.07;1.23;;;;;17.80;101317.00;;;;2061166;28;20226;-59
2024/02/01 04:12:41;;;;;;;2.27;1.40;;;;;17.80;101313.00;;;;2051668;28;20302;-58
2024/02/01 04:13:41;;;;;;;2.33;1.30;;;;;17.80;101309.00;;;;2052340;28;20223;-58
2024/02/01 04:14:42;;;;;;;1.70;0.97;;;;;17.80;101310.00;;;;2042011;28;20230;-58
2024/02/01 04:15:42;;;;;;;2.43;1.43;;;;;17.80;101314.00;;;;2059815;28;20237;-58
2024/02/01 04:16:43;;;;;;;2.33;1.10;;;;;17.80;101316.00;;;;2060584;28;20228;-59
2024/02/01 04:17:44;;;;;;;2.13;1.40;;;;;17.80;101326.00;;;;2061021;28;20229;-58
2024/02/01 04:18:44;;;;;;;1.93;1.10;;;;;17.80;101371.00;;;;2060723;28;20218;-58
2024/02/01 04:19:44;;;;;;;2.20;1.20;;;;;17.80;101344.00;;;;2050544;28;20782;-58
2024/02/01 04:20:44;;;;;;;3.40;1.43;;;;;17.80;101328.00;;;;2061239;28;20751;-58
2024/02/01 04:21:46;;;;;;;2.17;1.20;;;;;17.80;101327.00;;;;2060378;28;20304;-58
2024/02/01 04:22:49;;;;;;;2.70;1.42;;;;;17.80;101327.00;;;;2059467;28;20302;-58
2024/02/01 04:23:50;;;;;;;3.10;1.40;;;;;17.80;101323.00;;;;2049660;28;20278;-59
2024/02/01 04:24:50;;;;;;;2.07;1.20;;;;;17.80;101332.00;;;;2059364;28;20616;-59
2024/02/01 04:25:51;;;;;;;2.33;1.40;;;;;17.80;101330.00;;;;2060349;28;20211;-59
2024/02/01 04:26:52;;;;;;;3.72;1.45;;;;;17.80;101330.00;;;;2060672;28;20242;-58
2024/02/01 04:27:55;;;;;;;4.30;1.60;;;;;17.80;101334.00;;;;2061025;28;20230;-58
2024/02/01 04:28:55;;;;;;;2.90;1.30;;;;;17.80;101336.00;;;;2050508;28;20708;-58
2024/02/01 04:29:56;;;;;;;2.20;1.43;;;;;17.80;101325.00;;;;2060207;28;20217;-58
2024/02/01 04:30:57;;;;;;;2.40;1.30;;;;;17.80;101333.00;;;;2059733;28;20243;-58
2024/02/01 04:31:58;;;;;;;2.05;1.20;;;;;17.80;101331.00;;;;2059362;28;20221;-58
2024/02/01 04:32:58;;;;;;;1.90;1.10;;;;;17.80;101340.00;;;;2060842;28;20262;-58
2024/02/01 04:34:00;;;;;;;4.10;1.70;;;;;17.80;101327.00;;;;2050589;28;20238;-59
2024/02/01 04:35:04;;;;;;;2.33;1.25;;;;;17.80;101332.00;;;;2058788;28;20217;-59
2024/02/01 04:36:07;;;;;;;1.80;1.00;;;;;17.60;101342.00;;;;2051586;28;20230;-58
2024/02/01 04:37:12;;;;;;;3.30;1.40;;;;;17.80;101339.00;;;;2053155;28;20290;-58
2024/02/01 04:38:12;;;;;;;2.33;1.20;;;;;17.80;101346.00;;;;2053345;28;20226;-58
2024/02/01 04:39:13;;;;;;;2.33;1.27;;;;;17.80;101333.00;;;;2040360;28;20230;-58
2024/02/01 04:40:13;;;;;;;2.40;1.43;;;;;17.80;101343.00;;;;2044265;28;20290;-58
2024/02/01 04:41:14;;;;;;;2.30;1.40;;;;;17.80;101341.00;;;;2052099;28;20254;-58
2024/02/01 04:42:14;;;;;;;2.53;1.47;;;;;17.80;101343.00;;;;2061030;28;20304;-58
2024/02/01 04:43:16;;;;;;;2.63;1.20;;;;;17.80;101346.00;;;;2059493;28;20278;-58
2024/02/01 04:44:16;;;;;;;2.03;1.17;;;;;17.80;101346.00;;;;2050866;28;20617;-58
2024/02/01 04:45:18;;;;;;;2.30;1.20;;;;;17.80;101348.00;;;;2057413;28;20250;-58
2024/02/01 04:46:18;;;;;;;2.50;1.20;;;;;17.80;101349.00;;;;2045594;28;20230;-58
2024/02/01 04:47:19;;;;;;;2.40;1.33;;;;;17.80;101357.00;;;;2052460;28;20227;-58
2024/02/01 04:48:19;;;;;;;2.10;1.13;;;;;17.80;101362.00;;;;2060450;28;20222;-58
2024/02/01 04:49:19;;;;;;;2.33;1.27;;;;;17.80;101360.00;;;;2051072;28;20585;-58
2024/02/01 04:50:20;;;;;;;3.27;1.47;;;;;17.80;101362.00;;;;2060321;28;20324;-61
2024/02/01 04:51:20;;;;;;;2.37;1.20;;;;;17.80;101349.00;;;;2060831;28;20237;-58
2024/02/01 04:52:20;;;;;;;2.10;1.10;;;;;17.80;101361.00;;;;2059894;28;20272;-58
2024/02/01 04:53:21;;;;;;;2.17;1.40;;;;;17.80;101363.00;;;;2060744;28;20653;-59
2024/02/01 04:54:21;;;;;;;2.93;1.50;;;;;17.80;101373.00;;;;2050270;28;20218;-58
2024/02/01 04:55:22;;;;;;;2.10;1.20;;;;;17.80;101371.00;;;;2058276;28;20233;-58
2024/02/01 04:56:22;;;;;;;2.50;1.37;;;;;17.80;101372.00;;;;2060735;28;20237;-58
2024/02/01 04:57:22;;;;;;;1.90;1.10;;;;;17.80;101373.00;;;;2051284;28;20341;-58
2024/02/01 04:58:23;;;;;;;2.17;1.20;;;;;17.80;101383.00;;;;2052031;28;20220;-58
2024/02/01 04:59:23;;;;;;;2.53;1.30;;;;;17.80;101373.00;;;;2041555;28;20223;-58
2024/02/01 05:00:23;;;;;;;2.50;1.33;;;;;17.80;101380.00;;;;2058716;28;20269;-58